sensor_id;sensor_type;location;lat;lon;timestamp;P1;durP1;ratioP1;P2;durP2;ratioP2
38851;SDS011;24605;50.092;9.182;2022-12-31T00:00:08;3.20;;;1.10;;
38851;SDS011;24605;50.092;9.182;2022-12-31T00:02:35;11.38;;;1.08;;
38851;SDS011;24605;50.092;9.182;2022-12-31T00:05:02;1.50;;;0.80;;
38851;SDS011;24605;50.092;9.182;2022-12-31T00:07:29;1.92;;;0.90;;
38851;SDS011;24605;50.092;9.182;2022-12-31T00:09:55;1.60;;;0.80;;
38851;SDS011;24605;50.092;9.182;2022-12-31T00:12:23;2.03;;;0.90;;
38851;SDS011;24605;50.092;9.182;2022-12-31T00:14:49;3.47;;;1.00;;
38851;SDS011;24605;50.092;9.182;2022-12-31T00:17:16;1.17;;;0.80;;
38851;SDS011;24605;50.092;9.182;2022-12-31T00:19:42;1.38;;;0.68;;
38851;SDS011;24605;50.092;9.182;2022-12-31T00:22:09;1.48;;;0.80;;
38851;SDS011;24605;50.092;9.182;2022-12-31T00:24:35;2.00;;;0.80;;
38851;SDS011;24605;50.092;9.182;2022-12-31T00:27:02;2.78;;;0.90;;
38851;SDS011;24605;50.092;9.182;2022-12-31T00:29:30;1.83;;;0.73;;
38851;SDS011;24605;50.092;9.182;2022-12-31T00:31:56;2.95;;;1.00;;
38851;SDS011;24605;50.092;9.182;2022-12-31T00:34:23;2.55;;;0.80;;
38851;SDS011;24605;50.092;9.182;2022-12-31T00:36:49;1.83;;;0.60;;
38851;SDS011;24605;50.092;9.182;2022-12-31T00:39:16;1.80;;;0.70;;
38851;SDS011;24605;50.092;9.182;2022-12-31T00:41:42;1.48;;;0.80;;
38851;SDS011;24605;50.092;9.182;2022-12-31T00:44:09;2.28;;;0.93;;
38851;SDS011;24605;50.092;9.182;2022-12-31T00:46:38;1.35;;;0.75;;
38851;SDS011;24605;50.092;9.182;2022-12-31T00:49:04;2.33;;;1.10;;
38851;SDS011;24605;50.092;9.182;2022-12-31T00:51:31;1.35;;;0.85;;
38851;SDS011;24605;50.092;9.182;2022-12-31T00:53:58;2.25;;;1.30;;
38851;SDS011;24605;50.092;9.182;2022-12-31T00:56:26;3.03;;;1.42;;
38851;SDS011;24605;50.092;9.182;2022-12-31T00:58:54;5.63;;;1.55;;
38851;SDS011;24605;50.092;9.182;2022-12-31T01:01:22;3.22;;;1.35;;
38851;SDS011;24605;50.092;9.182;2022-12-31T01:03:53;2.85;;;1.20;;
38851;SDS011;24605;50.092;9.182;2022-12-31T01:06:21;2.58;;;0.93;;
38851;SDS011;24605;50.092;9.182;2022-12-31T01:08:48;2.38;;;1.23;;
38851;SDS011;24605;50.092;9.182;2022-12-31T01:11:15;2.10;;;1.10;;
38851;SDS011;24605;50.092;9.182;2022-12-31T01:13:46;2.17;;;1.10;;
38851;SDS011;24605;50.092;9.182;2022-12-31T01:16:15;2.67;;;1.20;;
38851;SDS011;24605;50.092;9.182;2022-12-31T01:18:43;1.63;;;0.93;;
38851;SDS011;24605;50.092;9.182;2022-12-31T01:21:11;2.72;;;1.10;;
38851;SDS011;24605;50.092;9.182;2022-12-31T01:23:39;2.47;;;0.90;;
38851;SDS011;24605;50.092;9.182;2022-12-31T01:26:06;1.55;;;0.80;;
38851;SDS011;24605;50.092;9.182;2022-12-31T01:28:35;2.72;;;0.85;;
38851;SDS011;24605;50.092;9.182;2022-12-31T01:31:02;2.40;;;1.02;;
38851;SDS011;24605;50.092;9.182;2022-12-31T01:33:30;0.85;;;0.68;;
38851;SDS011;24605;50.092;9.182;2022-12-31T01:36:00;1.20;;;0.80;;
38851;SDS011;24605;50.092;9.182;2022-12-31T01:38:28;1.50;;;0.90;;
38851;SDS011;24605;50.092;9.182;2022-12-31T01:40:55;1.40;;;0.85;;
38851;SDS011;24605;50.092;9.182;2022-12-31T01:43:21;1.38;;;0.75;;
38851;SDS011;24605;50.092;9.182;2022-12-31T01:45:48;2.53;;;0.80;;
38851;SDS011;24605;50.092;9.182;2022-12-31T01:48:20;0.98;;;0.52;;
38851;SDS011;24605;50.092;9.182;2022-12-31T01:50:49;1.42;;;0.70;;
38851;SDS011;24605;50.092;9.182;2022-12-31T01:53:17;2.13;;;0.60;;
38851;SDS011;24605;50.092;9.182;2022-12-31T01:55:47;1.08;;;0.65;;
38851;SDS011;24605;50.092;9.182;2022-12-31T01:58:18;4.45;;;0.80;;
38851;SDS011;24605;50.092;9.182;2022-12-31T02:00:47;3.88;;;0.80;;
38851;SDS011;24605;50.092;9.182;2022-12-31T02:03:16;1.90;;;0.75;;
38851;SDS011;24605;50.092;9.182;2022-12-31T02:05:45;2.25;;;0.70;;
38851;SDS011;24605;50.092;9.182;2022-12-31T02:08:16;0.90;;;0.63;;
38851;SDS011;24605;50.092;9.182;2022-12-31T02:10:43;1.45;;;0.70;;
38851;SDS011;24605;50.092;9.182;2022-12-31T02:13:11;1.65;;;0.70;;
38851;SDS011;24605;50.092;9.182;2022-12-31T02:15:41;1.90;;;0.70;;
38851;SDS011;24605;50.092;9.182;2022-12-31T02:18:19;2.65;;;0.80;;
38851;SDS011;24605;50.092;9.182;2022-12-31T02:20:55;2.00;;;0.80;;
38851;SDS011;24605;50.092;9.182;2022-12-31T02:23:51;2.83;;;0.93;;
38851;SDS011;24605;50.092;9.182;2022-12-31T02:26:47;3.38;;;1.00;;
38851;SDS011;24605;50.092;9.182;2022-12-31T02:32:22;2.08;;;0.80;;
38851;SDS011;24605;50.092;9.182;2022-12-31T02:34:55;3.40;;;0.90;;
38851;SDS011;24605;50.092;9.182;2022-12-31T02:37:26;2.88;;;0.90;;
38851;SDS011;24605;50.092;9.182;2022-12-31T02:39:55;4.00;;;0.95;;
38851;SDS011;24605;50.092;9.182;2022-12-31T02:42:22;3.35;;;1.08;;
38851;SDS011;24605;50.092;9.182;2022-12-31T02:44:49;2.65;;;1.13;;
38851;SDS011;24605;50.092;9.182;2022-12-31T02:47:27;1.65;;;0.85;;
38851;SDS011;24605;50.092;9.182;2022-12-31T02:50:07;1.80;;;0.90;;
38851;SDS011;24605;50.092;9.182;2022-12-31T02:52:45;2.72;;;1.00;;
38851;SDS011;24605;50.092;9.182;2022-12-31T02:55:22;2.60;;;1.02;;
38851;SDS011;24605;50.092;9.182;2022-12-31T02:57:56;1.85;;;0.75;;
38851;SDS011;24605;50.092;9.182;2022-12-31T03:00:33;2.13;;;0.95;;
38851;SDS011;24605;50.092;9.182;2022-12-31T03:03:38;3.00;;;0.93;;
38851;SDS011;24605;50.092;9.182;2022-12-31T03:06:05;1.98;;;0.90;;
38851;SDS011;24605;50.092;9.182;2022-12-31T03:08:34;1.70;;;0.80;;
38851;SDS011;24605;50.092;9.182;2022-12-31T03:11:21;1.50;;;0.80;;
38851;SDS011;24605;50.092;9.182;2022-12-31T03:14:01;2.65;;;1.10;;
38851;SDS011;24605;50.092;9.182;2022-12-31T03:16:28;2.40;;;0.80;;
38851;SDS011;24605;50.092;9.182;2022-12-31T03:18:55;2.47;;;0.80;;
38851;SDS011;24605;50.092;9.182;2022-12-31T03:21:39;1.35;;;0.80;;
38851;SDS011;24605;50.092;9.182;2022-12-31T03:24:23;2.50;;;1.13;;
38851;SDS011;24605;50.092;9.182;2022-12-31T03:27:07;2.40;;;1.10;;
38851;SDS011;24605;50.092;9.182;2022-12-31T03:29:33;3.05;;;1.00;;
38851;SDS011;24605;50.092;9.182;2022-12-31T03:32:00;1.85;;;0.85;;
38851;SDS011;24605;50.092;9.182;2022-12-31T03:34:28;2.75;;;1.13;;
38851;SDS011;24605;50.092;9.182;2022-12-31T03:36:54;2.75;;;1.00;;
38851;SDS011;24605;50.092;9.182;2022-12-31T03:39:20;2.97;;;1.05;;
38851;SDS011;24605;50.092;9.182;2022-12-31T03:41:47;4.90;;;1.10;;
38851;SDS011;24605;50.092;9.182;2022-12-31T03:44:13;2.83;;;1.17;;
38851;SDS011;24605;50.092;9.182;2022-12-31T03:46:40;3.03;;;1.00;;
38851;SDS011;24605;50.092;9.182;2022-12-31T03:49:06;3.95;;;1.13;;
38851;SDS011;24605;50.092;9.182;2022-12-31T03:51:34;4.35;;;1.20;;
38851;SDS011;24605;50.092;9.182;2022-12-31T03:54:01;1.40;;;0.80;;
38851;SDS011;24605;50.092;9.182;2022-12-31T03:56:27;2.47;;;1.00;;
38851;SDS011;24605;50.092;9.182;2022-12-31T03:58:54;3.42;;;0.95;;
38851;SDS011;24605;50.092;9.182;2022-12-31T04:01:20;3.28;;;1.10;;
38851;SDS011;24605;50.092;9.182;2022-12-31T04:03:48;2.03;;;0.75;;
38851;SDS011;24605;50.092;9.182;2022-12-31T04:06:14;2.30;;;1.00;;
38851;SDS011;24605;50.092;9.182;2022-12-31T04:08:42;3.25;;;0.93;;
38851;SDS011;24605;50.092;9.182;2022-12-31T04:11:09;3.20;;;0.80;;
38851;SDS011;24605;50.092;9.182;2022-12-31T04:13:35;3.67;;;1.20;;
38851;SDS011;24605;50.092;9.182;2022-12-31T04:16:02;2.47;;;0.85;;
38851;SDS011;24605;50.092;9.182;2022-12-31T04:18:28;3.75;;;1.17;;
38851;SDS011;24605;50.092;9.182;2022-12-31T04:20:59;1.95;;;1.00;;
38851;SDS011;24605;50.092;9.182;2022-12-31T04:23:26;4.13;;;0.90;;
38851;SDS011;24605;50.092;9.182;2022-12-31T04:25:54;4.43;;;0.70;;
38851;SDS011;24605;50.092;9.182;2022-12-31T04:28:21;4.03;;;0.95;;
38851;SDS011;24605;50.092;9.182;2022-12-31T04:30:47;3.00;;;1.02;;
38851;SDS011;24605;50.092;9.182;2022-12-31T04:33:14;2.05;;;0.90;;
38851;SDS011;24605;50.092;9.182;2022-12-31T04:35:43;2.95;;;0.93;;
38851;SDS011;24605;50.092;9.182;2022-12-31T04:38:09;2.47;;;1.02;;
38851;SDS011;24605;50.092;9.182;2022-12-31T04:40:36;2.67;;;1.00;;
38851;SDS011;24605;50.092;9.182;2022-12-31T04:43:24;3.08;;;1.20;;
38851;SDS011;24605;50.092;9.182;2022-12-31T04:45:50;2.35;;;0.80;;
38851;SDS011;24605;50.092;9.182;2022-12-31T04:48:16;5.03;;;1.10;;
38851;SDS011;24605;50.092;9.182;2022-12-31T04:50:44;2.40;;;0.82;;
38851;SDS011;24605;50.092;9.182;2022-12-31T04:53:11;1.88;;;0.90;;
38851;SDS011;24605;50.092;9.182;2022-12-31T04:55:39;2.47;;;0.93;;
38851;SDS011;24605;50.092;9.182;2022-12-31T04:58:06;2.17;;;1.02;;
38851;SDS011;24605;50.092;9.182;2022-12-31T05:00:34;4.68;;;1.00;;
38851;SDS011;24605;50.092;9.182;2022-12-31T05:03:00;3.38;;;1.10;;
38851;SDS011;24605;50.092;9.182;2022-12-31T05:05:26;3.30;;;0.80;;
38851;SDS011;24605;50.092;9.182;2022-12-31T05:07:53;2.45;;;1.00;;
38851;SDS011;24605;50.092;9.182;2022-12-31T05:10:20;2.42;;;1.00;;
38851;SDS011;24605;50.092;9.182;2022-12-31T05:12:47;3.03;;;1.08;;
38851;SDS011;24605;50.092;9.182;2022-12-31T05:15:14;3.83;;;0.90;;
38851;SDS011;24605;50.092;9.182;2022-12-31T05:17:41;2.83;;;1.00;;
38851;SDS011;24605;50.092;9.182;2022-12-31T05:20:08;3.80;;;1.20;;
38851;SDS011;24605;50.092;9.182;2022-12-31T05:22:35;2.50;;;1.00;;
38851;SDS011;24605;50.092;9.182;2022-12-31T05:25:01;2.83;;;0.90;;
38851;SDS011;24605;50.092;9.182;2022-12-31T05:27:28;1.48;;;0.80;;
38851;SDS011;24605;50.092;9.182;2022-12-31T05:29:56;3.33;;;1.00;;
38851;SDS011;24605;50.092;9.182;2022-12-31T05:32:22;4.43;;;0.80;;
38851;SDS011;24605;50.092;9.182;2022-12-31T05:34:50;4.43;;;1.23;;
38851;SDS011;24605;50.092;9.182;2022-12-31T05:37:17;2.15;;;0.85;;
38851;SDS011;24605;50.092;9.182;2022-12-31T05:39:44;4.30;;;0.88;;
38851;SDS011;24605;50.092;9.182;2022-12-31T05:42:10;2.58;;;0.82;;
38851;SDS011;24605;50.092;9.182;2022-12-31T05:44:37;2.33;;;0.90;;
38851;SDS011;24605;50.092;9.182;2022-12-31T05:47:03;3.80;;;0.93;;
38851;SDS011;24605;50.092;9.182;2022-12-31T05:49:30;4.07;;;0.90;;
38851;SDS011;24605;50.092;9.182;2022-12-31T05:51:58;3.15;;;1.10;;
38851;SDS011;24605;50.092;9.182;2022-12-31T05:54:24;3.50;;;0.80;;
38851;SDS011;24605;50.092;9.182;2022-12-31T05:56:51;3.00;;;0.70;;
38851;SDS011;24605;50.092;9.182;2022-12-31T05:59:17;8.02;;;1.00;;
38851;SDS011;24605;50.092;9.182;2022-12-31T06:01:44;2.92;;;0.85;;
38851;SDS011;24605;50.092;9.182;2022-12-31T06:04:10;2.40;;;0.85;;
38851;SDS011;24605;50.092;9.182;2022-12-31T06:06:37;3.97;;;1.00;;
38851;SDS011;24605;50.092;9.182;2022-12-31T06:09:05;4.82;;;1.05;;
38851;SDS011;24605;50.092;9.182;2022-12-31T06:11:31;2.30;;;0.90;;
38851;SDS011;24605;50.092;9.182;2022-12-31T06:13:58;2.08;;;0.82;;
38851;SDS011;24605;50.092;9.182;2022-12-31T06:16:24;2.55;;;0.90;;
38851;SDS011;24605;50.092;9.182;2022-12-31T06:18:51;4.10;;;1.00;;
38851;SDS011;24605;50.092;9.182;2022-12-31T06:21:18;1.83;;;0.70;;
38851;SDS011;24605;50.092;9.182;2022-12-31T06:23:45;1.67;;;0.80;;
38851;SDS011;24605;50.092;9.182;2022-12-31T06:26:13;2.58;;;0.93;;
38851;SDS011;24605;50.092;9.182;2022-12-31T06:28:40;2.95;;;1.02;;
38851;SDS011;24605;50.092;9.182;2022-12-31T06:31:08;3.15;;;1.13;;
38851;SDS011;24605;50.092;9.182;2022-12-31T06:33:37;3.85;;;0.73;;
38851;SDS011;24605;50.092;9.182;2022-12-31T06:36:05;2.42;;;0.90;;
38851;SDS011;24605;50.092;9.182;2022-12-31T06:38:33;1.50;;;0.80;;
38851;SDS011;24605;50.092;9.182;2022-12-31T06:41:02;2.60;;;0.80;;
38851;SDS011;24605;50.092;9.182;2022-12-31T06:43:30;1.58;;;0.70;;
38851;SDS011;24605;50.092;9.182;2022-12-31T06:45:58;3.03;;;1.10;;
38851;SDS011;24605;50.092;9.182;2022-12-31T06:48:25;1.80;;;0.70;;
38851;SDS011;24605;50.092;9.182;2022-12-31T06:50:52;4.68;;;0.73;;
38851;SDS011;24605;50.092;9.182;2022-12-31T06:53:18;3.05;;;0.88;;
38851;SDS011;24605;50.092;9.182;2022-12-31T06:55:46;2.10;;;0.75;;
38851;SDS011;24605;50.092;9.182;2022-12-31T06:58:14;2.22;;;0.90;;
38851;SDS011;24605;50.092;9.182;2022-12-31T07:00:46;1.83;;;1.00;;
38851;SDS011;24605;50.092;9.182;2022-12-31T07:03:21;1.67;;;0.88;;
38851;SDS011;24605;50.092;9.182;2022-12-31T07:06:00;2.97;;;1.00;;
38851;SDS011;24605;50.092;9.182;2022-12-31T07:08:33;2.00;;;0.80;;
38851;SDS011;24605;50.092;9.182;2022-12-31T07:11:11;3.55;;;0.98;;
38851;SDS011;24605;50.092;9.182;2022-12-31T07:13:52;2.70;;;1.27;;
38851;SDS011;24605;50.092;9.182;2022-12-31T07:16:35;2.92;;;1.00;;
38851;SDS011;24605;50.092;9.182;2022-12-31T07:19:15;3.33;;;0.80;;
38851;SDS011;24605;50.092;9.182;2022-12-31T07:21:59;3.28;;;1.00;;
38851;SDS011;24605;50.092;9.182;2022-12-31T07:24:27;2.75;;;0.98;;
38851;SDS011;24605;50.092;9.182;2022-12-31T07:27:04;2.03;;;0.82;;
38851;SDS011;24605;50.092;9.182;2022-12-31T07:29:46;3.75;;;0.90;;
38851;SDS011;24605;50.092;9.182;2022-12-31T07:32:29;2.85;;;0.90;;
38851;SDS011;24605;50.092;9.182;2022-12-31T07:35:08;2.10;;;0.82;;
38851;SDS011;24605;50.092;9.182;2022-12-31T07:37:41;2.55;;;1.00;;
38851;SDS011;24605;50.092;9.182;2022-12-31T07:40:15;2.33;;;0.77;;
38851;SDS011;24605;50.092;9.182;2022-12-31T07:42:55;3.28;;;1.00;;
38851;SDS011;24605;50.092;9.182;2022-12-31T07:45:30;3.88;;;0.98;;
38851;SDS011;24605;50.092;9.182;2022-12-31T07:48:05;5.63;;;1.20;;
38851;SDS011;24605;50.092;9.182;2022-12-31T07:50:43;6.30;;;1.20;;
38851;SDS011;24605;50.092;9.182;2022-12-31T07:53:10;1.40;;;0.88;;
38851;SDS011;24605;50.092;9.182;2022-12-31T07:55:37;3.53;;;1.20;;
38851;SDS011;24605;50.092;9.182;2022-12-31T07:58:05;2.92;;;0.90;;
38851;SDS011;24605;50.092;9.182;2022-12-31T08:00:42;2.65;;;1.00;;
38851;SDS011;24605;50.092;9.182;2022-12-31T08:03:13;2.50;;;0.93;;
38851;SDS011;24605;50.092;9.182;2022-12-31T08:05:51;4.38;;;1.00;;
38851;SDS011;24605;50.092;9.182;2022-12-31T08:08:30;4.95;;;1.38;;
38851;SDS011;24605;50.092;9.182;2022-12-31T08:11:08;2.55;;;0.98;;
38851;SDS011;24605;50.092;9.182;2022-12-31T08:13:40;2.83;;;1.20;;
38851;SDS011;24605;50.092;9.182;2022-12-31T08:16:08;2.90;;;1.10;;
38851;SDS011;24605;50.092;9.182;2022-12-31T08:18:38;6.65;;;1.20;;
38851;SDS011;24605;50.092;9.182;2022-12-31T08:21:08;2.28;;;1.00;;
38851;SDS011;24605;50.092;9.182;2022-12-31T08:23:46;4.10;;;1.13;;
38851;SDS011;24605;50.092;9.182;2022-12-31T08:26:22;3.38;;;1.00;;
38851;SDS011;24605;50.092;9.182;2022-12-31T08:29:01;3.00;;;1.23;;
38851;SDS011;24605;50.092;9.182;2022-12-31T08:31:40;3.85;;;1.00;;
38851;SDS011;24605;50.092;9.182;2022-12-31T08:34:16;2.80;;;1.10;;
38851;SDS011;24605;50.092;9.182;2022-12-31T08:36:51;3.15;;;1.00;;
38851;SDS011;24605;50.092;9.182;2022-12-31T08:39:27;4.47;;;1.10;;
38851;SDS011;24605;50.092;9.182;2022-12-31T08:42:03;2.33;;;1.00;;
38851;SDS011;24605;50.092;9.182;2022-12-31T08:44:41;2.78;;;1.08;;
38851;SDS011;24605;50.092;9.182;2022-12-31T08:47:17;4.80;;;1.60;;
38851;SDS011;24605;50.092;9.182;2022-12-31T08:49:55;3.45;;;1.15;;
38851;SDS011;24605;50.092;9.182;2022-12-31T08:52:22;3.75;;;1.48;;
38851;SDS011;24605;50.092;9.182;2022-12-31T08:54:50;2.33;;;1.25;;
38851;SDS011;24605;50.092;9.182;2022-12-31T08:57:19;3.05;;;1.25;;
38851;SDS011;24605;50.092;9.182;2022-12-31T08:59:54;5.75;;;1.40;;
38851;SDS011;24605;50.092;9.182;2022-12-31T09:02:37;3.45;;;1.23;;
38851;SDS011;24605;50.092;9.182;2022-12-31T09:05:15;3.97;;;1.30;;
38851;SDS011;24605;50.092;9.182;2022-12-31T09:07:50;4.53;;;1.20;;
38851;SDS011;24605;50.092;9.182;2022-12-31T09:10:27;4.55;;;1.77;;
38851;SDS011;24605;50.092;9.182;2022-12-31T09:13:00;3.08;;;1.45;;
38851;SDS011;24605;50.092;9.182;2022-12-31T09:15:36;3.45;;;1.30;;
38851;SDS011;24605;50.092;9.182;2022-12-31T09:18:07;3.33;;;1.40;;
38851;SDS011;24605;50.092;9.182;2022-12-31T09:20:36;3.30;;;1.13;;
38851;SDS011;24605;50.092;9.182;2022-12-31T09:23:03;3.42;;;1.10;;
38851;SDS011;24605;50.092;9.182;2022-12-31T09:25:31;5.72;;;1.40;;
38851;SDS011;24605;50.092;9.182;2022-12-31T09:28:07;2.92;;;1.35;;
38851;SDS011;24605;50.092;9.182;2022-12-31T09:30:41;3.47;;;1.10;;
38851;SDS011;24605;50.092;9.182;2022-12-31T09:33:15;2.90;;;1.30;;
38851;SDS011;24605;50.092;9.182;2022-12-31T09:35:58;4.43;;;1.70;;
38851;SDS011;24605;50.092;9.182;2022-12-31T09:38:30;4.32;;;1.40;;
38851;SDS011;24605;50.092;9.182;2022-12-31T09:41:14;4.03;;;1.65;;
38851;SDS011;24605;50.092;9.182;2022-12-31T09:44:00;3.53;;;1.27;;
38851;SDS011;24605;50.092;9.182;2022-12-31T09:50:11;4.40;;;1.48;;
38851;SDS011;24605;50.092;9.182;2022-12-31T09:53:00;6.00;;;1.80;;
38851;SDS011;24605;50.092;9.182;2022-12-31T09:55:39;3.53;;;1.20;;
38851;SDS011;24605;50.092;9.182;2022-12-31T09:58:14;3.88;;;1.27;;
38851;SDS011;24605;50.092;9.182;2022-12-31T10:00:55;4.07;;;1.40;;
38851;SDS011;24605;50.092;9.182;2022-12-31T10:03:28;4.63;;;1.55;;
38851;SDS011;24605;50.092;9.182;2022-12-31T10:06:10;3.53;;;1.48;;
38851;SDS011;24605;50.092;9.182;2022-12-31T10:09:00;4.97;;;1.30;;
38851;SDS011;24605;50.092;9.182;2022-12-31T10:11:49;3.92;;;1.30;;
38851;SDS011;24605;50.092;9.182;2022-12-31T10:14:30;4.50;;;1.67;;
38851;SDS011;24605;50.092;9.182;2022-12-31T10:17:12;3.85;;;1.30;;
38851;SDS011;24605;50.092;9.182;2022-12-31T10:20:05;3.33;;;1.25;;
38851;SDS011;24605;50.092;9.182;2022-12-31T10:22:53;4.55;;;1.88;;
38851;SDS011;24605;50.092;9.182;2022-12-31T10:26:07;4.47;;;1.30;;
38851;SDS011;24605;50.092;9.182;2022-12-31T10:28:45;5.38;;;1.35;;
38851;SDS011;24605;50.092;9.182;2022-12-31T10:31:25;4.95;;;1.42;;
38851;SDS011;24605;50.092;9.182;2022-12-31T10:34:06;4.55;;;1.00;;
38851;SDS011;24605;50.092;9.182;2022-12-31T10:36:50;3.75;;;1.17;;
38851;SDS011;24605;50.092;9.182;2022-12-31T10:39:21;5.90;;;1.50;;
38851;SDS011;24605;50.092;9.182;2022-12-31T10:51:20;3.70;;;1.20;;
38851;SDS011;24605;50.092;9.182;2022-12-31T11:09:28;2.88;;;1.25;;
38851;SDS011;24605;50.092;9.182;2022-12-31T11:12:18;4.55;;;1.23;;
38851;SDS011;24605;50.092;9.182;2022-12-31T11:15:00;4.45;;;1.30;;
38851;SDS011;24605;50.092;9.182;2022-12-31T11:17:45;3.38;;;1.48;;
38851;SDS011;24605;50.092;9.182;2022-12-31T11:20:29;5.43;;;1.60;;
38851;SDS011;24605;50.092;9.182;2022-12-31T11:23:08;4.50;;;1.52;;
38851;SDS011;24605;50.092;9.182;2022-12-31T11:25:53;4.18;;;0.95;;
38851;SDS011;24605;50.092;9.182;2022-12-31T11:28:31;5.47;;;1.90;;
38851;SDS011;24605;50.092;9.182;2022-12-31T11:34:01;3.85;;;1.13;;
38851;SDS011;24605;50.092;9.182;2022-12-31T11:36:40;4.97;;;1.10;;
38851;SDS011;24605;50.092;9.182;2022-12-31T11:39:19;5.70;;;1.73;;
38851;SDS011;24605;50.092;9.182;2022-12-31T11:41:54;4.95;;;1.48;;
38851;SDS011;24605;50.092;9.182;2022-12-31T11:44:35;3.45;;;1.15;;
38851;SDS011;24605;50.092;9.182;2022-12-31T11:47:15;3.33;;;1.50;;
38851;SDS011;24605;50.092;9.182;2022-12-31T11:49:59;5.25;;;1.70;;
38851;SDS011;24605;50.092;9.182;2022-12-31T11:52:45;4.15;;;1.20;;
38851;SDS011;24605;50.092;9.182;2022-12-31T11:55:25;3.63;;;1.17;;
38851;SDS011;24605;50.092;9.182;2022-12-31T11:58:00;3.13;;;1.25;;
38851;SDS011;24605;50.092;9.182;2022-12-31T12:00:36;3.75;;;1.13;;
38851;SDS011;24605;50.092;9.182;2022-12-31T12:03:05;6.05;;;1.15;;
38851;SDS011;24605;50.092;9.182;2022-12-31T12:05:32;4.75;;;1.30;;
38851;SDS011;24605;50.092;9.182;2022-12-31T12:08:00;2.80;;;1.20;;
38851;SDS011;24605;50.092;9.182;2022-12-31T12:10:28;5.45;;;1.25;;
38851;SDS011;24605;50.092;9.182;2022-12-31T12:12:56;3.85;;;1.13;;
38851;SDS011;24605;50.092;9.182;2022-12-31T12:15:25;5.82;;;1.30;;
38851;SDS011;24605;50.092;9.182;2022-12-31T12:17:55;3.35;;;1.10;;
38851;SDS011;24605;50.092;9.182;2022-12-31T12:20:27;4.70;;;1.20;;
38851;SDS011;24605;50.092;9.182;2022-12-31T12:22:57;2.78;;;1.20;;
38851;SDS011;24605;50.092;9.182;2022-12-31T12:25:26;4.38;;;1.15;;
38851;SDS011;24605;50.092;9.182;2022-12-31T12:28:09;5.78;;;1.40;;
38851;SDS011;24605;50.092;9.182;2022-12-31T12:30:52;5.22;;;1.60;;
38851;SDS011;24605;50.092;9.182;2022-12-31T12:33:20;3.58;;;1.05;;
38851;SDS011;24605;50.092;9.182;2022-12-31T12:35:48;3.58;;;1.30;;
38851;SDS011;24605;50.092;9.182;2022-12-31T12:38:15;3.88;;;1.30;;
38851;SDS011;24605;50.092;9.182;2022-12-31T12:40:54;2.53;;;0.93;;
38851;SDS011;24605;50.092;9.182;2022-12-31T12:43:22;3.80;;;1.10;;
38851;SDS011;24605;50.092;9.182;2022-12-31T12:45:51;3.65;;;1.40;;
38851;SDS011;24605;50.092;9.182;2022-12-31T12:48:20;5.22;;;2.05;;
38851;SDS011;24605;50.092;9.182;2022-12-31T12:50:57;4.75;;;1.40;;
38851;SDS011;24605;50.092;9.182;2022-12-31T12:53:31;7.43;;;2.47;;
38851;SDS011;24605;50.092;9.182;2022-12-31T12:56:08;3.13;;;1.08;;
38851;SDS011;24605;50.092;9.182;2022-12-31T12:58:49;5.00;;;2.00;;
38851;SDS011;24605;50.092;9.182;2022-12-31T13:01:29;6.40;;;1.85;;
38851;SDS011;24605;50.092;9.182;2022-12-31T13:04:05;5.07;;;1.30;;
38851;SDS011;24605;50.092;9.182;2022-12-31T13:06:50;3.50;;;1.38;;
38851;SDS011;24605;50.092;9.182;2022-12-31T13:09:29;3.88;;;1.10;;
38851;SDS011;24605;50.092;9.182;2022-12-31T13:12:11;4.43;;;1.70;;
38851;SDS011;24605;50.092;9.182;2022-12-31T13:14:46;2.95;;;1.30;;
38851;SDS011;24605;50.092;9.182;2022-12-31T13:17:25;3.13;;;1.10;;
38851;SDS011;24605;50.092;9.182;2022-12-31T13:20:01;3.63;;;1.23;;
38851;SDS011;24605;50.092;9.182;2022-12-31T13:22:36;3.40;;;1.73;;
38851;SDS011;24605;50.092;9.182;2022-12-31T13:25:14;5.53;;;1.60;;
38851;SDS011;24605;50.092;9.182;2022-12-31T13:27:49;4.05;;;1.75;;
38851;SDS011;24605;50.092;9.182;2022-12-31T13:30:20;3.38;;;1.60;;
38851;SDS011;24605;50.092;9.182;2022-12-31T13:32:49;4.72;;;1.55;;
38851;SDS011;24605;50.092;9.182;2022-12-31T13:35:24;3.72;;;1.17;;
38851;SDS011;24605;50.092;9.182;2022-12-31T13:37:57;3.25;;;1.20;;
38851;SDS011;24605;50.092;9.182;2022-12-31T13:40:28;3.47;;;1.10;;
38851;SDS011;24605;50.092;9.182;2022-12-31T13:42:59;4.10;;;1.10;;
38851;SDS011;24605;50.092;9.182;2022-12-31T13:45:31;3.88;;;0.98;;
38851;SDS011;24605;50.092;9.182;2022-12-31T13:48:04;2.88;;;1.45;;
38851;SDS011;24605;50.092;9.182;2022-12-31T13:50:38;3.65;;;1.10;;
38851;SDS011;24605;50.092;9.182;2022-12-31T13:53:13;3.95;;;0.88;;
38851;SDS011;24605;50.092;9.182;2022-12-31T13:55:46;3.28;;;1.02;;
38851;SDS011;24605;50.092;9.182;2022-12-31T13:58:17;3.28;;;1.50;;
38851;SDS011;24605;50.092;9.182;2022-12-31T14:00:52;3.47;;;1.35;;
38851;SDS011;24605;50.092;9.182;2022-12-31T14:03:26;3.78;;;1.17;;
38851;SDS011;24605;50.092;9.182;2022-12-31T14:06:04;4.00;;;1.40;;
38851;SDS011;24605;50.092;9.182;2022-12-31T14:08:37;7.35;;;2.67;;
38851;SDS011;24605;50.092;9.182;2022-12-31T14:11:05;3.35;;;1.20;;
38851;SDS011;24605;50.092;9.182;2022-12-31T14:13:44;3.13;;;1.30;;
38851;SDS011;24605;50.092;9.182;2022-12-31T14:16:23;4.78;;;1.30;;
38851;SDS011;24605;50.092;9.182;2022-12-31T14:21:29;4.25;;;1.63;;
38851;SDS011;24605;50.092;9.182;2022-12-31T14:24:02;5.05;;;2.30;;
38851;SDS011;24605;50.092;9.182;2022-12-31T14:26:38;6.03;;;2.33;;
38851;SDS011;24605;50.092;9.182;2022-12-31T14:29:12;5.78;;;2.33;;
38851;SDS011;24605;50.092;9.182;2022-12-31T14:31:55;5.75;;;2.58;;
38851;SDS011;24605;50.092;9.182;2022-12-31T14:34:37;5.85;;;2.58;;
38851;SDS011;24605;50.092;9.182;2022-12-31T14:37:14;5.30;;;1.58;;
38851;SDS011;24605;50.092;9.182;2022-12-31T14:39:51;3.40;;;1.27;;
38851;SDS011;24605;50.092;9.182;2022-12-31T14:42:24;5.75;;;1.77;;
38851;SDS011;24605;50.092;9.182;2022-12-31T14:44:58;2.78;;;1.40;;
38851;SDS011;24605;50.092;9.182;2022-12-31T14:47:36;3.80;;;1.80;;
38851;SDS011;24605;50.092;9.182;2022-12-31T14:50:11;3.38;;;1.75;;
38851;SDS011;24605;50.092;9.182;2022-12-31T14:52:48;4.75;;;1.98;;
38851;SDS011;24605;50.092;9.182;2022-12-31T14:55:27;4.30;;;1.70;;
38851;SDS011;24605;50.092;9.182;2022-12-31T14:57:55;5.25;;;1.95;;
38851;SDS011;24605;50.092;9.182;2022-12-31T15:00:24;3.85;;;1.77;;
38851;SDS011;24605;50.092;9.182;2022-12-31T15:02:54;3.97;;;1.77;;
38851;SDS011;24605;50.092;9.182;2022-12-31T15:05:24;5.20;;;1.50;;
38851;SDS011;24605;50.092;9.182;2022-12-31T15:08:00;3.58;;;1.55;;
38851;SDS011;24605;50.092;9.182;2022-12-31T15:10:47;4.95;;;1.25;;
38851;SDS011;24605;50.092;9.182;2022-12-31T15:13:31;3.20;;;1.20;;
38851;SDS011;24605;50.092;9.182;2022-12-31T15:16:13;3.72;;;1.00;;
38851;SDS011;24605;50.092;9.182;2022-12-31T15:18:59;3.13;;;1.20;;
38851;SDS011;24605;50.092;9.182;2022-12-31T15:21:44;2.53;;;1.05;;
38851;SDS011;24605;50.092;9.182;2022-12-31T15:24:19;3.75;;;1.00;;
38851;SDS011;24605;50.092;9.182;2022-12-31T15:26:50;3.95;;;1.38;;
38851;SDS011;24605;50.092;9.182;2022-12-31T15:29:22;3.70;;;1.25;;
38851;SDS011;24605;50.092;9.182;2022-12-31T15:31:52;5.85;;;1.52;;
38851;SDS011;24605;50.092;9.182;2022-12-31T15:34:23;5.38;;;1.50;;
38851;SDS011;24605;50.092;9.182;2022-12-31T15:36:52;3.28;;;1.70;;
38851;SDS011;24605;50.092;9.182;2022-12-31T15:39:25;5.80;;;2.70;;
38851;SDS011;24605;50.092;9.182;2022-12-31T15:42:03;4.75;;;1.75;;
38851;SDS011;24605;50.092;9.182;2022-12-31T15:44:50;5.30;;;1.33;;
38851;SDS011;24605;50.092;9.182;2022-12-31T15:47:24;3.38;;;1.00;;
38851;SDS011;24605;50.092;9.182;2022-12-31T15:49:54;4.10;;;1.27;;
38851;SDS011;24605;50.092;9.182;2022-12-31T15:52:26;6.95;;;2.13;;
38851;SDS011;24605;50.092;9.182;2022-12-31T15:57:31;2.25;;;1.00;;
38851;SDS011;24605;50.092;9.182;2022-12-31T16:00:04;3.67;;;1.70;;